createdAt,value
2022-11-24T00:01:28.312Z,11.52
2022-11-24T00:03:57.655Z,11.23
2022-11-24T00:06:25.453Z,13.32
2022-11-24T00:08:52.899Z,12.75
2022-11-24T00:11:23.407Z,12.67
2022-11-24T00:13:50.586Z,13.65
2022-11-24T00:16:32.098Z,11.45
2022-11-24T00:19:00.967Z,12.02
2022-11-24T00:21:30.796Z,11.90
2022-11-24T00:23:58.118Z,12.47
2022-11-24T00:26:37.374Z,12.00
2022-11-24T00:29:07.745Z,11.43
2022-11-24T00:31:39.743Z,12.32
2022-11-24T00:34:14.486Z,12.43
2022-11-24T00:36:42.421Z,12.90
2022-11-24T00:39:14.720Z,12.80
2022-11-24T00:41:42.573Z,12.63
2022-11-24T00:44:09.428Z,12.25
2022-11-24T00:46:36.521Z,12.65
2022-11-24T00:49:04.260Z,13.90
2022-11-24T00:51:31.508Z,12.82
2022-11-24T00:53:59.552Z,14.68
2022-11-24T00:56:27.614Z,12.25
2022-11-24T00:58:54.930Z,14.65
2022-11-24T01:01:24.822Z,13.37
2022-11-24T01:03:52.043Z,13.32
2022-11-24T01:06:21.901Z,10.98
2022-11-24T01:08:48.939Z,13.32
2022-11-24T01:12:00.236Z,10.45
2022-11-24T01:14:28.747Z,11.17
2022-11-24T01:16:55.717Z,11.60
2022-11-24T01:19:23.186Z,10.65
2022-11-24T01:21:50.351Z,10.75
2022-11-24T01:24:17.587Z,11.05
2022-11-24T01:26:45.115Z,12.87
2022-11-24T01:29:12.454Z,14.82
2022-11-24T01:31:39.521Z,13.02
2022-11-24T01:34:06.545Z,12.88
2022-11-24T01:36:33.903Z,12.98
2022-11-24T01:39:01.406Z,13.63
2022-11-24T01:41:28.344Z,14.93
2022-11-24T01:43:56.820Z,13.75
2022-11-24T01:46:43.692Z,16.85
2022-11-24T01:49:18.777Z,16.17
2022-11-24T01:51:52.494Z,14.03
2022-11-24T01:54:24.980Z,12.27
2022-11-24T01:57:20.432Z,14.05
2022-11-24T01:59:51.431Z,16.10
2022-11-24T02:02:19.582Z,13.82
2022-11-24T02:04:47.180Z,15.13
2022-11-24T02:07:14.704Z,16.98
2022-11-24T02:10:00.897Z,13.07
2022-11-24T02:12:28.854Z,14.00
2022-11-24T02:14:56.236Z,13.85
2022-11-24T02:17:23.216Z,12.57
2022-11-24T02:19:53.772Z,13.60
2022-11-24T02:22:43.970Z,13.82
2022-11-24T02:25:39.615Z,13.35
2022-11-24T02:28:10.762Z,12.98
2022-11-24T02:30:37.939Z,12.50
2022-11-24T02:33:04.839Z,11.82
2022-11-24T02:35:32.054Z,10.63
2022-11-24T02:37:58.886Z,12.18
2022-11-24T02:40:30.243Z,12.25
2022-11-24T02:43:11.018Z,12.40
2022-11-24T02:45:37.898Z,12.37
2022-11-24T02:48:05.271Z,12.80
2022-11-24T02:50:32.312Z,12.93
2022-11-24T02:52:59.217Z,14.32
2022-11-24T02:55:26.450Z,17.13
2022-11-24T02:57:53.327Z,18.20
2022-11-24T03:00:20.790Z,13.77
2022-11-24T03:02:48.293Z,14.77
2022-11-24T03:05:15.420Z,17.23
2022-11-24T03:07:42.572Z,16.60
2022-11-24T03:10:09.724Z,17.62
2022-11-24T03:12:37.653Z,18.23
2022-11-24T03:15:06.120Z,20.08
2022-11-24T03:17:32.930Z,21.60
2022-11-24T03:20:04.886Z,22.63
2022-11-24T03:22:32.315Z,26.83
2022-11-24T03:24:59.372Z,25.10
2022-11-24T03:27:26.250Z,29.48
2022-11-24T03:29:53.055Z,24.60
2022-11-24T03:32:19.945Z,27.70
2022-11-24T03:34:47.381Z,29.55
2022-11-24T03:37:14.569Z,29.35
2022-11-24T03:39:43.133Z,29.95
2022-11-24T03:42:10.001Z,30.65
2022-11-24T03:44:36.933Z,35.37
2022-11-24T03:47:03.934Z,34.33
2022-11-24T03:49:30.867Z,32.63
2022-11-24T03:51:57.750Z,32.55
2022-11-24T03:54:24.638Z,32.20
2022-11-24T03:56:53.068Z,34.30
2022-11-24T03:59:19.906Z,31.30
2022-11-24T04:01:46.799Z,32.15
2022-11-24T04:04:13.948Z,32.88
2022-11-24T04:06:41.068Z,30.27
2022-11-24T04:09:08.141Z,31.40
2022-11-24T04:11:53.984Z,34.90
2022-11-24T04:14:21.089Z,31.50
2022-11-24T04:16:48.192Z,29.80
2022-11-24T04:19:15.053Z,32.38
2022-11-24T04:21:42.059Z,30.80
2022-11-24T04:24:08.951Z,30.15
2022-11-24T04:26:35.742Z,30.17
2022-11-24T04:29:02.566Z,28.52
2022-11-24T04:31:29.447Z,30.55
2022-11-24T04:33:56.394Z,33.47
2022-11-24T04:36:23.271Z,29.20
2022-11-24T04:39:24.932Z,29.75
2022-11-24T04:41:39.896Z,31.62
2022-11-24T04:44:06.659Z,31.92
2022-11-24T04:46:33.559Z,33.10
2022-11-24T04:49:00.456Z,34.28
2022-11-24T04:51:27.364Z,31.48
2022-11-24T04:53:54.194Z,30.27
2022-11-24T04:56:21.022Z,34.67
2022-11-24T04:58:49.110Z,36.13
2022-11-24T05:01:16.054Z,39.15
2022-11-24T05:03:42.991Z,35.67
2022-11-24T05:06:09.890Z,38.03
2022-11-24T05:08:36.964Z,36.88
2022-11-24T05:11:07.438Z,37.97
2022-11-24T05:13:34.243Z,33.05
2022-11-24T05:16:01.873Z,38.60
2022-11-24T05:18:29.004Z,36.65
2022-11-24T05:20:56.179Z,39.45
2022-11-24T05:23:22.989Z,39.00
2022-11-24T05:25:50.616Z,37.88
2022-11-24T05:28:17.960Z,35.53
2022-11-24T05:30:45.322Z,39.17
2022-11-24T05:33:19.000Z,37.22
2022-11-24T05:35:48.112Z,37.07
2022-11-24T05:38:16.071Z,36.88
2022-11-24T05:40:43.737Z,35.60
2022-11-24T05:43:12.160Z,37.67
2022-11-24T05:45:39.379Z,38.40
2022-11-24T05:48:08.107Z,33.57
2022-11-24T05:50:35.776Z,34.70
2022-11-24T05:53:10.229Z,31.83
2022-11-24T05:55:37.755Z,34.58
2022-11-24T05:58:07.171Z,37.40
2022-11-24T06:00:35.388Z,33.33
2022-11-24T06:03:02.338Z,32.75
2022-11-24T06:05:30.017Z,37.05
2022-11-24T06:07:58.558Z,35.47
2022-11-24T06:10:25.386Z,36.90
2022-11-24T06:12:52.549Z,33.17
2022-11-24T06:15:19.399Z,32.90
2022-11-24T06:17:56.201Z,35.28
2022-11-24T06:20:28.335Z,37.30
2022-11-24T06:22:59.075Z,71.65
2022-11-24T06:25:26.387Z,41.03
2022-11-24T06:27:53.217Z,35.85
2022-11-24T06:30:20.494Z,34.15
2022-11-24T06:32:49.654Z,31.27
2022-11-24T06:35:17.362Z,32.72
2022-11-24T06:37:44.252Z,35.77
2022-11-24T06:40:13.279Z,33.65
2022-11-24T06:42:40.160Z,31.55
2022-11-24T06:45:09.278Z,29.30
2022-11-24T06:47:37.040Z,30.52
2022-11-24T06:50:04.527Z,24.73
2022-11-24T06:52:31.509Z,22.70
2022-11-24T06:54:58.412Z,27.83
2022-11-24T06:57:25.222Z,52.78
2022-11-24T06:59:52.181Z,34.92
2022-11-24T07:02:18.968Z,24.63
2022-11-24T07:04:45.856Z,26.58
2022-11-24T07:07:12.829Z,26.62
2022-11-24T07:09:39.839Z,20.85
2022-11-24T07:12:07.685Z,18.45
2022-11-24T07:14:34.742Z,20.17
2022-11-24T07:17:02.716Z,18.02
2022-11-24T07:19:29.539Z,21.48
2022-11-24T07:21:56.541Z,17.37
2022-11-24T07:24:23.513Z,20.92
2022-11-24T07:26:50.293Z,18.80
2022-11-24T07:29:17.145Z,19.17
2022-11-24T07:31:46.037Z,23.40
2022-11-24T07:34:14.886Z,21.20
2022-11-24T07:36:42.720Z,17.92
2022-11-24T07:39:09.818Z,23.47
2022-11-24T07:41:36.619Z,20.70
2022-11-24T07:44:03.631Z,20.20
2022-11-24T07:46:30.408Z,21.30
2022-11-24T07:48:57.198Z,20.65
2022-11-24T07:51:24.218Z,20.60
2022-11-24T07:53:51.073Z,18.42
2022-11-24T07:56:17.860Z,21.75
2022-11-24T07:58:49.811Z,22.87
2022-11-24T08:01:20.231Z,19.42
2022-11-24T08:03:47.625Z,20.27
2022-11-24T08:06:25.077Z,18.40
2022-11-24T08:08:53.366Z,19.90
2022-11-24T08:11:20.224Z,19.80
2022-11-24T08:13:47.172Z,22.20
2022-11-24T08:16:16.969Z,18.17
2022-11-24T08:18:44.761Z,22.83
2022-11-24T08:21:16.595Z,25.83
2022-11-24T08:23:43.532Z,18.73
2022-11-24T08:26:17.906Z,23.98
2022-11-24T08:28:48.013Z,25.47
2022-11-24T08:31:18.734Z,20.52
2022-11-24T08:33:46.383Z,24.35
2022-11-24T08:36:16.953Z,22.33
2022-11-24T08:38:44.864Z,21.92
2022-11-24T08:41:14.297Z,21.97
2022-11-24T08:43:41.888Z,23.80
2022-11-24T08:46:12.372Z,17.58
2022-11-24T08:48:40.185Z,17.92
2022-11-24T08:51:12.489Z,23.38
2022-11-24T08:53:40.013Z,21.50
2022-11-24T08:56:08.015Z,27.17
2022-11-24T08:58:35.684Z,24.42
2022-11-24T09:01:10.156Z,26.15
2022-11-24T09:03:44.778Z,23.75
2022-11-24T09:06:13.542Z,21.13
2022-11-24T09:08:40.454Z,23.95
2022-11-24T09:11:12.380Z,23.05
2022-11-24T09:13:40.322Z,25.17
2022-11-24T09:16:21.616Z,25.20
2022-11-24T09:18:54.611Z,23.13
2022-11-24T09:21:22.361Z,23.23
2022-11-24T09:23:50.750Z,24.08
2022-11-24T09:26:20.728Z,26.00
2022-11-24T09:28:48.230Z,26.33
2022-11-24T09:31:17.113Z,26.00
2022-11-24T09:33:45.093Z,27.62
2022-11-24T09:36:12.361Z,28.25
2022-11-24T09:38:39.252Z,25.15
2022-11-24T09:41:16.580Z,28.23
2022-11-24T09:44:07.414Z,23.97
2022-11-24T09:46:48.613Z,25.10
2022-11-24T09:49:22.209Z,25.37
2022-11-24T09:51:52.755Z,30.17
2022-11-24T09:54:25.327Z,26.15
2022-11-24T09:56:52.461Z,26.80
2022-11-24T09:59:26.245Z,26.10
2022-11-24T10:01:54.407Z,27.13
2022-11-24T10:04:31.963Z,28.60
2022-11-24T10:07:20.805Z,30.17
2022-11-24T10:10:06.583Z,28.27
2022-11-24T10:12:36.702Z,25.45
2022-11-24T10:15:12.302Z,24.67
2022-11-24T10:18:17.429Z,26.55
2022-11-24T10:20:56.633Z,24.00
2022-11-24T10:23:50.115Z,25.73
2022-11-24T10:26:25.426Z,25.85
2022-11-24T10:28:55.783Z,23.50
2022-11-24T10:31:38.290Z,22.70
2022-11-24T10:34:17.730Z,21.80
2022-11-24T10:37:03.366Z,22.50
2022-11-24T10:39:57.132Z,23.77
2022-11-24T10:42:33.432Z,20.85
2022-11-24T10:45:02.970Z,21.17
2022-11-24T10:47:30.822Z,21.08
2022-11-24T10:50:19.433Z,22.30
2022-11-24T10:52:55.008Z,21.75
2022-11-24T10:55:21.852Z,21.42
2022-11-24T10:57:48.935Z,22.55
2022-11-24T11:00:18.685Z,22.55
2022-11-24T11:02:47.441Z,27.93
2022-11-24T11:05:32.416Z,24.23
2022-11-24T11:08:14.420Z,20.83
2022-11-24T11:10:43.163Z,24.85
2022-11-24T11:13:25.137Z,25.77
2022-11-24T11:15:52.394Z,19.90
2022-11-24T11:18:21.174Z,26.83
2022-11-24T11:20:56.495Z,27.90
2022-11-24T11:23:29.466Z,24.00
2022-11-24T11:26:33.291Z,25.02
2022-11-24T11:35:03.151Z,27.50
2022-11-24T11:37:32.982Z,24.45
2022-11-24T11:40:00.553Z,23.80
2022-11-24T11:43:01.774Z,23.23
2022-11-24T11:45:38.451Z,23.17
2022-11-24T11:48:23.691Z,23.08
2022-11-24T11:54:22.983Z,23.30
2022-11-24T11:57:04.303Z,22.37
2022-11-24T11:59:48.783Z,20.75
2022-11-24T12:02:54.073Z,20.12
2022-11-24T12:05:31.723Z,23.85
2022-11-24T12:09:19.458Z,22.08
2022-11-24T12:11:45.072Z,21.07
2022-11-24T12:14:21.052Z,22.60
2022-11-24T12:17:07.199Z,20.98
2022-11-24T12:19:46.220Z,16.90
2022-11-24T12:22:40.709Z,18.85
2022-11-24T12:25:22.913Z,17.87
2022-11-24T12:27:55.335Z,18.30
2022-11-24T12:30:22.824Z,20.17
2022-11-24T12:33:24.075Z,18.17
2022-11-24T12:36:04.476Z,19.98
2022-11-24T12:38:53.870Z,18.07
2022-11-24T12:41:45.315Z,18.92
2022-11-24T12:44:44.297Z,20.58
2022-11-24T12:47:32.387Z,20.62
2022-11-24T12:50:11.402Z,21.40
2022-11-24T12:52:44.252Z,18.27
2022-11-24T12:55:22.767Z,17.62
2022-11-24T12:58:17.890Z,17.15
2022-11-24T13:01:03.285Z,18.58
2022-11-24T13:03:45.838Z,19.20
2022-11-24T13:06:35.833Z,18.27
2022-11-24T13:09:13.338Z,18.40
2022-11-24T13:11:49.039Z,17.70
2022-11-24T13:14:20.463Z,17.27
2022-11-24T13:17:13.327Z,17.40
2022-11-24T13:19:38.055Z,18.43
2022-11-24T13:22:07.690Z,18.90
2022-11-24T13:24:39.637Z,19.85
2022-11-24T13:27:15.509Z,17.70
2022-11-24T13:29:46.585Z,16.02
2022-11-24T13:32:14.489Z,16.70
2022-11-24T13:34:45.491Z,18.40
2022-11-24T13:37:33.869Z,20.52
2022-11-24T13:40:11.606Z,19.75
2022-11-24T13:42:57.647Z,20.17
2022-11-24T13:45:40.365Z,19.00
2022-11-24T13:48:33.761Z,20.37
2022-11-24T13:51:01.559Z,18.08
2022-11-24T13:53:36.225Z,20.05
2022-11-24T13:56:03.041Z,17.87
2022-11-24T13:59:00.264Z,17.43
2022-11-24T14:01:30.536Z,18.10
2022-11-24T14:04:29.902Z,22.10
2022-11-24T14:06:52.140Z,19.27
2022-11-24T14:09:24.118Z,18.87
2022-11-24T14:12:12.713Z,20.13
2022-11-24T14:14:40.538Z,19.15
2022-11-24T14:17:19.779Z,20.02
2022-11-24T14:19:49.289Z,16.95
2022-11-24T14:22:34.689Z,19.12
2022-11-24T14:25:03.029Z,18.90
2022-11-24T14:27:34.587Z,19.58
2022-11-24T14:30:15.523Z,20.98
2022-11-24T14:33:00.050Z,20.65
2022-11-24T14:35:29.945Z,18.12
2022-11-24T14:37:57.487Z,20.73
2022-11-24T14:40:41.169Z,20.60
2022-11-24T14:43:27.429Z,20.30
2022-11-24T14:45:57.730Z,16.60
2022-11-24T14:48:35.810Z,18.90
2022-11-24T14:51:18.112Z,17.47
2022-11-24T14:53:49.006Z,16.05
2022-11-24T14:56:26.931Z,16.52
2022-11-24T14:58:55.529Z,15.85
2022-11-24T15:01:28.980Z,18.75
2022-11-24T15:07:31.641Z,17.60
2022-11-24T15:10:00.794Z,20.73
2022-11-24T15:12:34.263Z,22.80
2022-11-24T15:15:13.248Z,21.73
2022-11-24T15:17:49.354Z,19.37
2022-11-24T15:20:41.388Z,16.20
2022-11-24T15:23:24.933Z,19.75
2022-11-24T15:26:17.604Z,17.17
2022-11-24T15:28:46.898Z,24.35
2022-11-24T15:31:14.742Z,20.93
2022-11-24T15:33:42.343Z,20.95
2022-11-24T15:36:09.273Z,19.17
2022-11-24T15:38:36.039Z,20.52
2022-11-24T15:41:16.618Z,18.17
2022-11-24T15:43:44.715Z,18.30
2022-11-24T15:46:11.656Z,19.48
2022-11-24T15:48:39.837Z,21.48
2022-11-24T15:51:11.331Z,17.08
2022-11-24T15:53:40.962Z,19.60
2022-11-24T15:56:23.517Z,20.00
2022-11-24T15:58:50.370Z,21.05
2022-11-24T16:01:17.563Z,22.92
2022-11-24T16:03:47.600Z,18.37
2022-11-24T16:06:24.596Z,17.98
2022-11-24T16:08:52.554Z,18.50
2022-11-24T16:11:19.339Z,17.52
2022-11-24T16:13:51.811Z,15.00
2022-11-24T16:16:20.550Z,18.92
2022-11-24T16:18:47.771Z,17.02
2022-11-24T16:21:14.740Z,17.73
2022-11-24T16:23:41.681Z,18.23
2022-11-24T16:26:09.943Z,18.62
2022-11-24T16:28:36.796Z,17.23
2022-11-24T16:31:04.122Z,18.00
2022-11-24T16:33:31.536Z,17.07
2022-11-24T16:35:58.709Z,19.58
2022-11-24T16:38:25.575Z,20.70
2022-11-24T16:40:54.550Z,20.08
2022-11-24T16:43:21.557Z,20.67
2022-11-24T16:46:01.423Z,15.33
2022-11-24T16:48:28.204Z,21.52
2022-11-24T16:50:54.960Z,18.60
2022-11-24T16:53:22.644Z,21.30
2022-11-24T16:55:57.776Z,17.17
2022-11-24T16:58:24.812Z,18.43
2022-11-24T17:00:51.676Z,18.77
2022-11-24T17:03:19.819Z,17.87
2022-11-24T17:05:58.164Z,18.92
2022-11-24T17:08:25.925Z,18.58
2022-11-24T17:10:52.788Z,17.37
2022-11-24T17:13:20.072Z,16.30
2022-11-24T17:15:52.625Z,17.05
2022-11-24T17:18:25.589Z,16.75
2022-11-24T17:20:52.692Z,17.87
2022-11-24T17:23:19.973Z,15.57
2022-11-24T17:25:48.718Z,20.67
2022-11-24T17:28:15.834Z,20.35
2022-11-24T17:30:43.455Z,21.15
2022-11-24T17:33:10.725Z,18.80
2022-11-24T17:35:42.254Z,15.80
2022-11-24T17:38:09.380Z,18.50
2022-11-24T17:40:36.493Z,18.02
2022-11-24T17:43:03.595Z,18.85
2022-11-24T17:45:31.232Z,16.55
2022-11-24T17:48:01.216Z,16.23
2022-11-24T17:50:28.320Z,20.37
2022-11-24T17:52:55.952Z,19.83
2022-11-24T17:55:23.526Z,16.10
2022-11-24T17:57:50.840Z,17.62
2022-11-24T18:00:18.557Z,17.50
2022-11-24T18:05:13.799Z,18.08
2022-11-24T18:07:44.132Z,19.83
2022-11-24T18:12:52.954Z,17.93
2022-11-24T18:15:20.529Z,17.62
2022-11-24T18:17:47.612Z,17.30
2022-11-24T18:20:15.021Z,14.73
2022-11-24T18:23:04.544Z,17.62
2022-11-24T18:25:30.152Z,15.90
2022-11-24T18:28:01.626Z,15.80
2022-11-24T18:30:29.455Z,16.20
2022-11-24T18:32:58.804Z,17.48
2022-11-24T18:35:25.970Z,15.82
2022-11-24T18:37:53.826Z,18.23
2022-11-24T18:40:21.224Z,18.08
2022-11-24T18:42:48.170Z,15.73
2022-11-24T18:45:17.748Z,17.70
2022-11-24T18:47:45.320Z,16.27
2022-11-24T18:50:12.643Z,17.03
2022-11-24T18:52:39.971Z,17.02
2022-11-24T18:55:07.172Z,19.35
2022-11-24T18:57:35.460Z,16.92
2022-11-24T19:00:03.075Z,15.43
2022-11-24T19:02:34.876Z,20.50
2022-11-24T19:05:03.624Z,17.02
2022-11-24T19:07:34.874Z,18.65
2022-11-24T19:10:04.583Z,18.20
2022-11-24T19:12:32.322Z,17.37
2022-11-24T19:14:59.257Z,16.27
2022-11-24T19:17:26.598Z,16.30
2022-11-24T19:19:53.988Z,17.80
2022-11-24T19:22:21.352Z,22.52
2022-11-24T19:24:50.082Z,19.65
2022-11-24T19:27:18.891Z,18.97
2022-11-24T19:29:48.500Z,18.42
2022-11-24T19:32:16.957Z,17.08
2022-11-24T19:34:44.187Z,16.67
2022-11-24T19:37:11.449Z,15.38
2022-11-24T19:39:38.894Z,15.13
2022-11-24T19:42:06.750Z,16.48
2022-11-24T19:44:35.633Z,14.07
2022-11-24T19:47:02.752Z,18.23
2022-11-24T19:49:30.333Z,15.95
2022-11-24T19:51:57.710Z,19.03
2022-11-24T19:54:26.207Z,19.83
2022-11-24T19:56:54.408Z,17.87
2022-11-24T19:59:25.305Z,19.73
2022-11-24T20:01:53.352Z,19.55
2022-11-24T20:04:21.032Z,18.33
2022-11-24T20:06:48.624Z,17.90
2022-11-24T20:09:18.266Z,16.70
2022-11-24T20:11:46.599Z,16.62
2022-11-24T20:14:16.431Z,18.95
2022-11-24T20:16:45.840Z,20.70
2022-11-24T20:19:16.904Z,17.30
2022-11-24T20:21:48.106Z,20.55
2022-11-24T20:24:23.350Z,20.70
2022-11-24T20:26:56.755Z,18.10
2022-11-24T20:29:24.147Z,20.67
2022-11-24T20:31:54.834Z,21.25
2022-11-24T20:34:23.020Z,22.55
2022-11-24T20:36:53.227Z,17.98
2022-11-24T20:39:26.806Z,19.92
2022-11-24T20:41:54.626Z,20.97
2022-11-24T20:44:22.189Z,19.52
2022-11-24T20:46:49.924Z,24.12
2022-11-24T20:49:20.533Z,25.67
2022-11-24T20:51:48.139Z,23.95
2022-11-24T20:54:17.998Z,21.03
2022-11-24T20:56:46.807Z,20.27
2022-11-24T20:59:20.367Z,20.30
2022-11-24T21:01:49.421Z,25.10
2022-11-24T21:04:24.663Z,21.35
2022-11-24T21:06:51.858Z,19.07
2022-11-24T21:09:19.254Z,19.92
2022-11-24T21:11:46.731Z,22.60
2022-11-24T21:14:14.039Z,21.48
2022-11-24T21:16:42.719Z,22.75
2022-11-24T21:19:13.013Z,19.33
2022-11-24T21:21:42.697Z,21.45
2022-11-24T21:24:14.748Z,22.92
2022-11-24T21:26:42.797Z,21.40
2022-11-24T21:29:13.126Z,21.33
2022-11-24T21:31:40.611Z,20.00
2022-11-24T21:34:08.958Z,21.37
2022-11-24T21:36:36.200Z,22.92
2022-11-24T21:39:04.304Z,21.12
2022-11-24T21:41:33.572Z,25.75
2022-11-24T21:44:00.652Z,21.17
2022-11-24T21:46:29.753Z,21.73
2022-11-24T21:48:56.549Z,23.48
2022-11-24T21:51:23.553Z,26.15
2022-11-24T21:53:50.393Z,19.55
2022-11-24T21:56:22.514Z,21.23
2022-11-24T21:58:55.177Z,20.20
2022-11-24T22:01:25.281Z,20.88
2022-11-24T22:03:52.224Z,22.85
2022-11-24T22:06:20.247Z,20.35
2022-11-24T22:08:48.314Z,23.80
2022-11-24T22:11:20.573Z,25.20
2022-11-24T22:13:48.177Z,26.52
2022-11-24T22:16:18.160Z,25.08
2022-11-24T22:18:45.817Z,22.10
2022-11-24T22:21:18.534Z,23.23
2022-11-24T22:23:45.636Z,23.90
2022-11-24T22:26:18.084Z,24.48
2022-11-24T22:28:45.832Z,27.48
2022-11-24T22:31:24.142Z,22.35
2022-11-24T22:33:52.212Z,25.30
2022-11-24T22:36:20.967Z,21.83
2022-11-24T22:38:52.632Z,22.83
2022-11-24T22:41:19.717Z,30.05
2022-11-24T22:43:46.650Z,25.40
2022-11-24T22:46:16.868Z,26.33
2022-11-24T22:48:46.164Z,24.00
2022-11-24T22:51:18.590Z,22.70
2022-11-24T22:53:50.121Z,24.25
2022-11-24T22:56:17.615Z,25.10
2022-11-24T22:58:44.501Z,26.93
2022-11-24T23:01:23.230Z,23.77
2022-11-24T23:03:53.683Z,21.73
2022-11-24T23:06:23.266Z,23.35
2022-11-24T23:08:50.760Z,22.60
2022-11-24T23:11:22.235Z,23.77
2022-11-24T23:13:56.497Z,21.87
2022-11-24T23:16:23.893Z,20.55
2022-11-24T23:18:54.028Z,18.58
2022-11-24T23:21:23.950Z,23.77
2022-11-24T23:23:50.892Z,23.30
2022-11-24T23:26:20.507Z,23.35
2022-11-24T23:28:48.112Z,24.10
2022-11-24T23:31:18.111Z,23.77
2022-11-24T23:33:45.434Z,18.00
2022-11-24T23:36:18.694Z,24.67
2022-11-24T23:38:46.115Z,24.63
2022-11-24T23:41:21.625Z,22.55
2022-11-24T23:43:49.058Z,25.67
2022-11-24T23:46:21.339Z,22.35
2022-11-24T23:48:49.505Z,26.80
2022-11-24T23:51:18.711Z,22.98
2022-11-24T23:53:46.496Z,23.90
2022-11-24T23:56:16.068Z,23.48
2022-11-24T23:58:43.227Z,24.17
